sensor_id;sensor_type;location;lat;lon;timestamp;P1;durP1;ratioP1;P2;durP2;ratioP2
86043;SDS011;76719;49.832;8.748;2024-03-22T00:04:43;11.05;;;5.10;;
86043;SDS011;76719;49.832;8.748;2024-03-22T00:09:44;14.63;;;5.95;;
86043;SDS011;76719;49.832;8.748;2024-03-22T00:14:46;11.43;;;5.38;;
86043;SDS011;76719;49.832;8.748;2024-03-22T00:19:49;13.05;;;5.45;;
86043;SDS011;76719;49.832;8.748;2024-03-22T00:24:50;12.88;;;5.35;;
86043;SDS011;76719;49.832;8.748;2024-03-22T00:29:52;12.55;;;5.22;;
86043;SDS011;76719;49.832;8.748;2024-03-22T00:34:55;12.77;;;5.75;;
86043;SDS011;76719;49.832;8.748;2024-03-22T00:39:56;13.85;;;5.75;;
86043;SDS011;76719;49.832;8.748;2024-03-22T00:44:58;14.00;;;6.45;;
86043;SDS011;76719;49.832;8.748;2024-03-22T00:50:00;9.13;;;4.95;;
86043;SDS011;76719;49.832;8.748;2024-03-22T00:55:02;13.63;;;5.70;;
86043;SDS011;76719;49.832;8.748;2024-03-22T01:00:04;12.38;;;4.88;;
86043;SDS011;76719;49.832;8.748;2024-03-22T01:05:07;17.42;;;5.47;;
86043;SDS011;76719;49.832;8.748;2024-03-22T01:10:09;11.57;;;4.57;;
86043;SDS011;76719;49.832;8.748;2024-03-22T01:15:11;14.63;;;5.85;;
86043;SDS011;76719;49.832;8.748;2024-03-22T01:20:14;11.63;;;5.60;;
86043;SDS011;76719;49.832;8.748;2024-03-22T01:25:16;14.02;;;5.78;;
86043;SDS011;76719;49.832;8.748;2024-03-22T01:30:17;15.13;;;5.50;;
86043;SDS011;76719;49.832;8.748;2024-03-22T01:35:20;13.75;;;5.22;;
86043;SDS011;76719;49.832;8.748;2024-03-22T01:40:21;10.95;;;4.78;;
86043;SDS011;76719;49.832;8.748;2024-03-22T01:45:23;11.05;;;6.03;;
86043;SDS011;76719;49.832;8.748;2024-03-22T01:50:26;10.23;;;5.45;;
86043;SDS011;76719;49.832;8.748;2024-03-22T01:55:29;10.48;;;5.55;;
86043;SDS011;76719;49.832;8.748;2024-03-22T02:00:30;10.38;;;5.35;;
86043;SDS011;76719;49.832;8.748;2024-03-22T02:05:33;14.20;;;5.97;;
86043;SDS011;76719;49.832;8.748;2024-03-22T02:10:34;8.73;;;4.70;;
86043;SDS011;76719;49.832;8.748;2024-03-22T02:15:36;11.23;;;5.35;;
86043;SDS011;76719;49.832;8.748;2024-03-22T02:20:39;13.55;;;5.95;;
86043;SDS011;76719;49.832;8.748;2024-03-22T02:25:42;10.85;;;5.75;;
86043;SDS011;76719;49.832;8.748;2024-03-22T02:30:43;15.35;;;6.80;;
86043;SDS011;76719;49.832;8.748;2024-03-22T02:35:45;10.00;;;5.10;;
86043;SDS011;76719;49.832;8.748;2024-03-22T02:40:49;10.63;;;5.63;;
86043;SDS011;76719;49.832;8.748;2024-03-22T02:45:52;11.00;;;5.70;;
86043;SDS011;76719;49.832;8.748;2024-03-22T02:50:54;9.75;;;4.90;;
86043;SDS011;76719;49.832;8.748;2024-03-22T03:01:55;15.73;;;5.82;;
86043;SDS011;76719;49.832;8.748;2024-03-22T03:12:54;11.25;;;4.30;;
86043;SDS011;76719;49.832;8.748;2024-03-22T03:17:57;12.80;;;5.38;;
86043;SDS011;76719;49.832;8.748;2024-03-22T03:22:58;12.30;;;4.75;;
86043;SDS011;76719;49.832;8.748;2024-03-22T03:28:01;12.13;;;4.28;;
86043;SDS011;76719;49.832;8.748;2024-03-22T03:33:05;13.73;;;5.10;;
86043;SDS011;76719;49.832;8.748;2024-03-22T03:38:06;11.18;;;5.32;;
86043;SDS011;76719;49.832;8.748;2024-03-22T03:43:08;9.32;;;3.92;;
86043;SDS011;76719;49.832;8.748;2024-03-22T03:54:07;11.65;;;5.28;;
86043;SDS011;76719;49.832;8.748;2024-03-22T03:59:09;13.30;;;4.60;;
86043;SDS011;76719;49.832;8.748;2024-03-22T04:04:10;8.45;;;3.97;;
86043;SDS011;76719;49.832;8.748;2024-03-22T04:09:13;10.35;;;4.68;;
86043;SDS011;76719;49.832;8.748;2024-03-22T04:14:15;11.13;;;5.03;;
86043;SDS011;76719;49.832;8.748;2024-03-22T04:19:16;14.07;;;5.53;;
86043;SDS011;76719;49.832;8.748;2024-03-22T04:24:19;11.40;;;4.47;;
86043;SDS011;76719;49.832;8.748;2024-03-22T04:29:21;7.85;;;4.18;;
86043;SDS011;76719;49.832;8.748;2024-03-22T04:34:22;14.77;;;5.93;;
86043;SDS011;76719;49.832;8.748;2024-03-22T04:39:25;10.80;;;4.40;;
86043;SDS011;76719;49.832;8.748;2024-03-22T04:44:26;10.48;;;4.60;;
86043;SDS011;76719;49.832;8.748;2024-03-22T04:55:26;16.77;;;6.47;;
86043;SDS011;76719;49.832;8.748;2024-03-22T05:00:28;12.80;;;5.90;;
86043;SDS011;76719;49.832;8.748;2024-03-22T05:05:29;11.18;;;4.80;;
86043;SDS011;76719;49.832;8.748;2024-03-22T05:10:32;14.55;;;6.00;;
86043;SDS011;76719;49.832;8.748;2024-03-22T05:27:30;11.45;;;4.18;;
86043;SDS011;76719;49.832;8.748;2024-03-22T05:32:32;11.95;;;5.20;;
86043;SDS011;76719;49.832;8.748;2024-03-22T05:37:34;16.02;;;6.13;;
86043;SDS011;76719;49.832;8.748;2024-03-22T05:42:37;14.98;;;6.60;;
86043;SDS011;76719;49.832;8.748;2024-03-22T05:47:38;16.38;;;6.50;;
86043;SDS011;76719;49.832;8.748;2024-03-22T05:52:40;15.93;;;6.28;;
86043;SDS011;76719;49.832;8.748;2024-03-22T05:57:43;14.30;;;6.10;;
86043;SDS011;76719;49.832;8.748;2024-03-22T06:02:45;14.55;;;6.25;;
86043;SDS011;76719;49.832;8.748;2024-03-22T06:07:46;14.60;;;5.72;;
86043;SDS011;76719;49.832;8.748;2024-03-22T06:12:49;13.18;;;5.75;;
86043;SDS011;76719;49.832;8.748;2024-03-22T06:17:51;18.15;;;6.78;;
86043;SDS011;76719;49.832;8.748;2024-03-22T06:22:53;22.98;;;7.22;;
86043;SDS011;76719;49.832;8.748;2024-03-22T06:27:56;14.77;;;6.60;;
86043;SDS011;76719;49.832;8.748;2024-03-22T06:32:57;16.98;;;9.02;;
86043;SDS011;76719;49.832;8.748;2024-03-22T06:37:59;16.95;;;8.75;;
86043;SDS011;76719;49.832;8.748;2024-03-22T06:43:04;17.35;;;7.78;;
86043;SDS011;76719;49.832;8.748;2024-03-22T06:48:05;20.88;;;9.73;;
86043;SDS011;76719;49.832;8.748;2024-03-22T06:53:07;20.52;;;10.57;;
86043;SDS011;76719;49.832;8.748;2024-03-22T06:58:11;16.83;;;6.80;;
86043;SDS011;76719;49.832;8.748;2024-03-22T07:03:13;10.40;;;4.90;;
86043;SDS011;76719;49.832;8.748;2024-03-22T07:08:14;12.63;;;6.18;;
86043;SDS011;76719;49.832;8.748;2024-03-22T07:13:17;11.82;;;4.97;;
86043;SDS011;76719;49.832;8.748;2024-03-22T07:18:18;6.60;;;3.08;;
86043;SDS011;76719;49.832;8.748;2024-03-22T07:23:20;7.22;;;2.25;;
86043;SDS011;76719;49.832;8.748;2024-03-22T07:28:23;5.88;;;1.90;;
86043;SDS011;76719;49.832;8.748;2024-03-22T07:33:25;4.30;;;1.90;;
86043;SDS011;76719;49.832;8.748;2024-03-22T07:38:27;6.22;;;2.85;;
86043;SDS011;76719;49.832;8.748;2024-03-22T07:43:30;16.00;;;3.08;;
86043;SDS011;76719;49.832;8.748;2024-03-22T07:48:31;4.22;;;2.00;;
86043;SDS011;76719;49.832;8.748;2024-03-22T07:53:33;6.55;;;2.10;;
86043;SDS011;76719;49.832;8.748;2024-03-22T07:58:36;4.68;;;1.75;;
86043;SDS011;76719;49.832;8.748;2024-03-22T08:03:37;5.13;;;2.28;;
86043;SDS011;76719;49.832;8.748;2024-03-22T08:08:39;3.33;;;1.50;;
86043;SDS011;76719;49.832;8.748;2024-03-22T08:13:42;3.50;;;1.70;;
86043;SDS011;76719;49.832;8.748;2024-03-22T08:18:43;3.53;;;1.33;;
86043;SDS011;76719;49.832;8.748;2024-03-22T08:23:45;5.10;;;1.98;;
86043;SDS011;76719;49.832;8.748;2024-03-22T08:29:08;3.58;;;1.67;;
86043;SDS011;76719;49.832;8.748;2024-03-22T08:34:10;3.28;;;1.45;;
86043;SDS011;76719;49.832;8.748;2024-03-22T08:39:12;3.70;;;2.15;;
86043;SDS011;76719;49.832;8.748;2024-03-22T08:49:18;3.45;;;1.33;;
86043;SDS011;76719;49.832;8.748;2024-03-22T08:54:20;3.05;;;0.80;;
86043;SDS011;76719;49.832;8.748;2024-03-22T08:59:23;1.98;;;0.73;;
86043;SDS011;76719;49.832;8.748;2024-03-22T09:04:24;1.52;;;0.85;;
86043;SDS011;76719;49.832;8.748;2024-03-22T09:09:26;2.75;;;1.33;;
86043;SDS011;76719;49.832;8.748;2024-03-22T09:14:29;1.60;;;0.80;;
86043;SDS011;76719;49.832;8.748;2024-03-22T09:24:32;1.80;;;0.70;;
86043;SDS011;76719;49.832;8.748;2024-03-22T09:29:35;5.28;;;1.30;;
86043;SDS011;76719;49.832;8.748;2024-03-22T09:34:36;2.40;;;1.17;;
86043;SDS011;76719;49.832;8.748;2024-03-22T09:39:38;4.85;;;1.25;;
86043;SDS011;76719;49.832;8.748;2024-03-22T09:44:41;3.58;;;1.58;;
86043;SDS011;76719;49.832;8.748;2024-03-22T09:49:46;5.32;;;1.98;;
86043;SDS011;76719;49.832;8.748;2024-03-22T09:59:52;3.03;;;1.33;;
86043;SDS011;76719;49.832;8.748;2024-03-22T10:04:56;3.03;;;1.40;;
86043;SDS011;76719;49.832;8.748;2024-03-22T10:09:58;2.72;;;1.10;;
86043;SDS011;76719;49.832;8.748;2024-03-22T10:15:01;4.13;;;1.63;;
86043;SDS011;76719;49.832;8.748;2024-03-22T10:20:03;6.85;;;2.47;;
86043;SDS011;76719;49.832;8.748;2024-03-22T10:25:07;5.35;;;2.15;;
86043;SDS011;76719;49.832;8.748;2024-03-22T10:30:10;5.43;;;2.50;;
86043;SDS011;76719;49.832;8.748;2024-03-22T10:35:16;8.55;;;2.08;;
86043;SDS011;76719;49.832;8.748;2024-03-22T10:40:18;6.00;;;2.90;;
86043;SDS011;76719;49.832;8.748;2024-03-22T10:45:22;7.38;;;2.72;;
86043;SDS011;76719;49.832;8.748;2024-03-22T10:50:28;8.15;;;2.75;;
86043;SDS011;76719;49.832;8.748;2024-03-22T10:55:33;8.00;;;2.97;;
86043;SDS011;76719;49.832;8.748;2024-03-22T11:00:37;9.52;;;3.22;;
86043;SDS011;76719;49.832;8.748;2024-03-22T11:05:46;6.10;;;2.97;;
86043;SDS011;76719;49.832;8.748;2024-03-22T11:10:48;5.72;;;3.10;;
86043;SDS011;76719;49.832;8.748;2024-03-22T11:15:51;4.75;;;2.45;;
86043;SDS011;76719;49.832;8.748;2024-03-22T11:20:53;8.57;;;3.17;;
86043;SDS011;76719;49.832;8.748;2024-03-22T11:25:55;3.97;;;2.33;;
86043;SDS011;76719;49.832;8.748;2024-03-22T11:30:59;10.40;;;2.53;;
86043;SDS011;76719;49.832;8.748;2024-03-22T11:36:01;4.38;;;2.38;;
86043;SDS011;76719;49.832;8.748;2024-03-22T11:41:02;6.80;;;3.13;;
86043;SDS011;76719;49.832;8.748;2024-03-22T11:46:06;5.25;;;3.10;;
86043;SDS011;76719;49.832;8.748;2024-03-22T11:51:08;5.63;;;3.03;;
86043;SDS011;76719;49.832;8.748;2024-03-22T11:56:10;8.70;;;3.78;;
86043;SDS011;76719;49.832;8.748;2024-03-22T12:01:13;7.03;;;2.92;;
86043;SDS011;76719;49.832;8.748;2024-03-22T12:06:15;7.43;;;2.92;;
86043;SDS011;76719;49.832;8.748;2024-03-22T12:11:17;6.57;;;3.42;;
86043;SDS011;76719;49.832;8.748;2024-03-22T12:16:20;10.63;;;3.20;;
86043;SDS011;76719;49.832;8.748;2024-03-22T12:21:21;8.13;;;3.53;;
86043;SDS011;76719;49.832;8.748;2024-03-22T12:26:23;7.70;;;3.30;;
86043;SDS011;76719;49.832;8.748;2024-03-22T12:31:27;9.15;;;3.47;;
86043;SDS011;76719;49.832;8.748;2024-03-22T12:36:28;6.28;;;3.47;;
86043;SDS011;76719;49.832;8.748;2024-03-22T12:41:30;6.63;;;3.20;;
86043;SDS011;76719;49.832;8.748;2024-03-22T12:46:34;10.35;;;4.50;;
86043;SDS011;76719;49.832;8.748;2024-03-22T12:51:36;9.05;;;4.45;;
86043;SDS011;76719;49.832;8.748;2024-03-22T12:56:37;7.95;;;3.75;;
86043;SDS011;76719;49.832;8.748;2024-03-22T13:01:41;9.38;;;4.38;;
86043;SDS011;76719;49.832;8.748;2024-03-22T13:06:44;10.27;;;3.97;;
86043;SDS011;76719;49.832;8.748;2024-03-22T13:11:45;8.95;;;4.10;;
86043;SDS011;76719;49.832;8.748;2024-03-22T13:16:48;9.52;;;4.72;;
86043;SDS011;76719;49.832;8.748;2024-03-22T13:21:50;9.70;;;5.10;;
86043;SDS011;76719;49.832;8.748;2024-03-22T13:26:52;12.82;;;5.28;;
86043;SDS011;76719;49.832;8.748;2024-03-22T13:31:54;13.55;;;5.72;;
86043;SDS011;76719;49.832;8.748;2024-03-22T13:36:56;11.35;;;5.20;;
86043;SDS011;76719;49.832;8.748;2024-03-22T13:41:58;11.13;;;4.78;;
86043;SDS011;76719;49.832;8.748;2024-03-22T13:47:00;15.13;;;5.05;;
86043;SDS011;76719;49.832;8.748;2024-03-22T13:52:05;13.32;;;4.88;;
86043;SDS011;76719;49.832;8.748;2024-03-22T13:57:06;10.45;;;5.47;;
86043;SDS011;76719;49.832;8.748;2024-03-22T14:02:09;9.75;;;5.03;;
86043;SDS011;76719;49.832;8.748;2024-03-22T14:07:11;14.10;;;6.07;;
86043;SDS011;76719;49.832;8.748;2024-03-22T14:12:12;12.18;;;5.57;;
86043;SDS011;76719;49.832;8.748;2024-03-22T14:17:15;10.98;;;5.55;;
86043;SDS011;76719;49.832;8.748;2024-03-22T14:22:16;13.10;;;6.25;;
86043;SDS011;76719;49.832;8.748;2024-03-22T14:27:18;14.23;;;6.97;;
86043;SDS011;76719;49.832;8.748;2024-03-22T14:32:21;12.57;;;6.68;;
86043;SDS011;76719;49.832;8.748;2024-03-22T14:37:22;20.90;;;6.80;;
86043;SDS011;76719;49.832;8.748;2024-03-22T14:42:24;13.05;;;6.95;;
86043;SDS011;76719;49.832;8.748;2024-03-22T14:47:27;13.93;;;6.57;;
86043;SDS011;76719;49.832;8.748;2024-03-22T14:52:28;12.35;;;6.18;;
86043;SDS011;76719;49.832;8.748;2024-03-22T14:57:30;14.82;;;5.70;;
86043;SDS011;76719;49.832;8.748;2024-03-22T15:02:33;12.68;;;5.90;;
86043;SDS011;76719;49.832;8.748;2024-03-22T15:07:34;15.52;;;5.82;;
86043;SDS011;76719;49.832;8.748;2024-03-22T15:12:36;11.50;;;5.38;;
86043;SDS011;76719;49.832;8.748;2024-03-22T15:17:39;14.07;;;6.10;;
86043;SDS011;76719;49.832;8.748;2024-03-22T15:22:41;9.10;;;5.50;;
86043;SDS011;76719;49.832;8.748;2024-03-22T15:27:43;10.85;;;5.82;;
86043;SDS011;76719;49.832;8.748;2024-03-22T15:32:46;9.30;;;5.25;;
86043;SDS011;76719;49.832;8.748;2024-03-22T15:37:47;14.52;;;6.00;;
86043;SDS011;76719;49.832;8.748;2024-03-22T15:42:49;7.75;;;4.88;;
86043;SDS011;76719;49.832;8.748;2024-03-22T15:47:52;11.63;;;5.90;;
86043;SDS011;76719;49.832;8.748;2024-03-22T15:52:53;10.57;;;5.95;;
86043;SDS011;76719;49.832;8.748;2024-03-22T15:57:55;11.38;;;5.40;;
86043;SDS011;76719;49.832;8.748;2024-03-22T16:02:58;15.02;;;5.88;;
86043;SDS011;76719;49.832;8.748;2024-03-22T16:07:59;12.27;;;6.03;;
86043;SDS011;76719;49.832;8.748;2024-03-22T16:13:01;11.43;;;6.28;;
86043;SDS011;76719;49.832;8.748;2024-03-22T16:18:04;10.90;;;5.47;;
86043;SDS011;76719;49.832;8.748;2024-03-22T16:23:06;12.18;;;5.03;;
86043;SDS011;76719;49.832;8.748;2024-03-22T16:28:07;12.57;;;5.60;;
86043;SDS011;76719;49.832;8.748;2024-03-22T16:33:10;9.00;;;4.90;;
86043;SDS011;76719;49.832;8.748;2024-03-22T16:38:12;13.95;;;5.15;;
86043;SDS011;76719;49.832;8.748;2024-03-22T16:43:13;12.10;;;5.93;;
86043;SDS011;76719;49.832;8.748;2024-03-22T16:48:16;12.45;;;6.25;;
86043;SDS011;76719;49.832;8.748;2024-03-22T16:53:18;10.52;;;5.13;;
86043;SDS011;76719;49.832;8.748;2024-03-22T16:58:19;12.95;;;5.68;;
86043;SDS011;76719;49.832;8.748;2024-03-22T17:03:22;12.27;;;5.40;;
86043;SDS011;76719;49.832;8.748;2024-03-22T17:08:23;14.57;;;5.68;;
86043;SDS011;76719;49.832;8.748;2024-03-22T17:13:25;13.85;;;6.35;;
86043;SDS011;76719;49.832;8.748;2024-03-22T17:18:28;12.35;;;5.50;;
86043;SDS011;76719;49.832;8.748;2024-03-22T17:23:29;16.20;;;6.95;;
86043;SDS011;76719;49.832;8.748;2024-03-22T17:28:31;15.85;;;6.20;;
86043;SDS011;76719;49.832;8.748;2024-03-22T17:33:34;17.90;;;7.75;;
86043;SDS011;76719;49.832;8.748;2024-03-22T17:43:38;13.15;;;5.85;;
86043;SDS011;76719;49.832;8.748;2024-03-22T17:48:43;13.88;;;6.35;;
86043;SDS011;76719;49.832;8.748;2024-03-22T17:53:44;11.68;;;5.95;;
86043;SDS011;76719;49.832;8.748;2024-03-22T17:58:46;16.05;;;7.68;;
86043;SDS011;76719;49.832;8.748;2024-03-22T18:03:48;15.88;;;7.75;;
86043;SDS011;76719;49.832;8.748;2024-03-22T18:08:51;15.82;;;6.28;;
86043;SDS011;76719;49.832;8.748;2024-03-22T18:13:52;19.92;;;7.82;;
86043;SDS011;76719;49.832;8.748;2024-03-22T18:18:55;12.73;;;6.70;;
86043;SDS011;76719;49.832;8.748;2024-03-22T18:23:56;15.15;;;6.60;;
86043;SDS011;76719;49.832;8.748;2024-03-22T18:28:58;17.42;;;6.45;;
86043;SDS011;76719;49.832;8.748;2024-03-22T18:34:01;10.68;;;6.82;;
86043;SDS011;76719;49.832;8.748;2024-03-22T18:39:03;10.77;;;5.57;;
86043;SDS011;76719;49.832;8.748;2024-03-22T18:44:04;13.38;;;6.18;;
86043;SDS011;76719;49.832;8.748;2024-03-22T18:49:08;17.95;;;7.43;;
86043;SDS011;76719;49.832;8.748;2024-03-22T18:54:09;17.45;;;8.52;;
86043;SDS011;76719;49.832;8.748;2024-03-22T18:59:13;27.33;;;15.52;;
86043;SDS011;76719;49.832;8.748;2024-03-22T19:04:16;21.42;;;7.45;;
86043;SDS011;76719;49.832;8.748;2024-03-22T19:09:17;20.08;;;10.57;;
86043;SDS011;76719;49.832;8.748;2024-03-22T19:14:19;26.42;;;13.57;;
86043;SDS011;76719;49.832;8.748;2024-03-22T19:19:22;15.77;;;9.77;;
86043;SDS011;76719;49.832;8.748;2024-03-22T19:24:23;12.20;;;7.20;;
86043;SDS011;76719;49.832;8.748;2024-03-22T19:29:24;17.60;;;8.25;;
86043;SDS011;76719;49.832;8.748;2024-03-22T19:34:27;17.65;;;8.68;;
86043;SDS011;76719;49.832;8.748;2024-03-22T19:44:31;12.85;;;7.30;;
86043;SDS011;76719;49.832;8.748;2024-03-22T19:49:33;14.30;;;8.25;;
86043;SDS011;76719;49.832;8.748;2024-03-22T19:59:36;13.90;;;7.80;;
86043;SDS011;76719;49.832;8.748;2024-03-22T20:04:39;13.50;;;7.45;;
86043;SDS011;76719;49.832;8.748;2024-03-22T20:09:41;11.73;;;7.60;;
86043;SDS011;76719;49.832;8.748;2024-03-22T20:14:42;16.33;;;8.63;;
86043;SDS011;76719;49.832;8.748;2024-03-22T20:19:45;13.95;;;7.70;;
86043;SDS011;76719;49.832;8.748;2024-03-22T20:24:47;15.60;;;7.40;;
86043;SDS011;76719;49.832;8.748;2024-03-22T20:29:48;15.82;;;7.70;;
86043;SDS011;76719;49.832;8.748;2024-03-22T20:34:52;26.92;;;7.15;;
